Time,TemperatureF,DewpointF,PressureIn,WindDirection,WindDirectionDegrees,WindSpeedMPH,WindSpeedGustMPH,Humidity,HourlyPrecipIn,Conditions,Clouds,dailyrainin,SoftwareType,DateUTC
2013-03-12 00:00:00,49.8,47.9,30.18,SSE,149,0.0,0.0,93,0.00,,,0.00,Wunderground v.1.15,2013-03-12 07:00:00,
2013-03-12 00:06:00,49.8,47.9,30.18,SSE,149,0.0,0.0,93,0.00,,,0.00,Wunderground v.1.15,2013-03-12 07:06:00,
2013-03-12 00:12:00,49.7,47.8,30.18,SSE,149,0.0,0.0,93,0.00,,,0.00,Wunderground v.1.15,2013-03-12 07:12:00,
2013-03-12 00:18:00,49.7,48.0,30.18,SSE,149,0.0,0.0,94,0.00,,,0.00,Wunderground v.1.15,2013-03-12 07:18:00,
2013-03-12 00:24:00,49.6,47.9,30.18,SSE,149,0.0,0.0,94,0.00,,,0.00,Wunderground v.1.15,2013-03-12 07:24:00,
2013-03-12 00:30:00,49.6,47.9,30.18,SSE,149,0.0,0.0,94,0.00,,,0.00,Wunderground v.1.15,2013-03-12 07:30:00,
2013-03-12 00:36:00,49.6,47.9,30.17,SSE,149,0.0,0.0,94,0.00,,,0.00,Wunderground v.1.15,2013-03-12 07:36:00,
2013-03-12 00:42:00,49.5,47.6,30.17,SSE,149,0.0,0.0,93,0.00,,,0.00,Wunderground v.1.15,2013-03-12 07:42:00,
2013-03-12 00:48:00,49.4,47.5,30.17,SSE,149,0.0,0.0,93,0.00,,,0.00,Wunderground v.1.15,2013-03-12 07:48:00,
2013-03-12 00:54:00,49.5,47.6,30.17,SSE,149,0.0,0.0,93,0.00,,,0.00,Wunderground v.1.15,2013-03-12 07:54:00,
2013-03-12 01:00:00,49.4,47.5,30.17,SSE,149,0.0,0.0,93,0.00,,,0.00,Wunderground v.1.15,2013-03-12 08:00:00,
2013-03-12 01:06:00,49.3,47.4,30.17,SSE,149,0.0,0.0,93,0.00,,,0.00,Wunderground v.1.15,2013-03-12 08:06:00,
2013-03-12 01:12:00,49.3,47.4,30.17,SSE,149,0.0,0.0,93,0.00,,,0.00,Wunderground v.1.15,2013-03-12 08:12:00,
2013-03-12 01:18:00,49.2,47.3,30.17,SSE,149,0.0,0.0,93,0.00,,,0.00,Wunderground v.1.15,2013-03-12 08:18:00,
2013-03-12 01:24:00,49.2,47.5,30.17,SSE,149,0.0,1.0,94,0.00,,,0.00,Wunderground v.1.15,2013-03-12 08:24:00,
2013-03-12 01:30:00,49.4,47.7,30.18,SSE,149,0.0,0.0,94,0.00,,,0.00,Wunderground v.1.15,2013-03-12 08:30:00,
2013-03-12 01:36:00,49.4,47.7,30.17,SSE,149,0.0,0.0,94,0.00,,,0.00,Wunderground v.1.15,2013-03-12 08:36:00,
2013-03-12 01:42:00,49.2,47.5,30.17,SSE,149,0.0,0.0,94,0.00,,,0.00,Wunderground v.1.15,2013-03-12 08:42:00,
2013-03-12 01:48:00,49.2,47.5,30.17,SSE,149,0.0,0.0,94,0.00,,,0.00,Wunderground v.1.15,2013-03-12 08:48:00,
2013-03-12 01:54:00,49.1,47.4,30.16,SSE,149,0.0,0.0,94,0.00,,,0.00,Wunderground v.1.15,2013-03-12 08:54:00,
2013-03-12 02:00:00,49.2,47.5,30.16,SSE,149,0.0,0.0,94,0.00,,,0.00,Wunderground v.1.15,2013-03-12 09:00:00,
2013-03-12 02:06:00,49.2,47.5,30.16,SSE,149,0.0,0.0,94,0.00,,,0.00,Wunderground v.1.15,2013-03-12 09:06:00,
2013-03-12 02:12:00,49.2,47.5,30.16,SSE,149,0.0,0.0,94,0.00,,,0.00,Wunderground v.1.15,2013-03-12 09:12:00,
2013-03-12 02:18:00,49.1,47.4,30.16,SSE,149,0.0,0.0,94,0.00,,,0.00,Wunderground v.1.15,2013-03-12 09:18:00,
2013-03-12 02:24:00,49.0,47.3,30.16,SSE,149,0.0,0.0,94,0.00,,,0.00,Wunderground v.1.15,2013-03-12 09:24:00,
2013-03-12 02:30:00,48.9,47.2,30.16,SSE,149,0.0,0.0,94,0.00,,,0.00,Wunderground v.1.15,2013-03-12 09:30:00,
2013-03-12 02:36:00,48.9,47.2,30.16,SSE,149,0.0,0.0,94,0.00,,,0.00,Wunderground v.1.15,2013-03-12 09:36:00,
2013-03-12 02:42:00,48.6,47.0,30.16,SSE,149,0.0,0.0,94,0.00,,,0.00,Wunderground v.1.15,2013-03-12 09:42:00,
2013-03-12 02:48:00,48.6,47.0,30.17,SSE,149,0.0,0.0,94,0.00,,,0.00,Wunderground v.1.15,2013-03-12 09:48:00,
2013-03-12 02:54:00,48.5,46.9,30.16,SSE,149,0.0,0.0,94,0.00,,,0.00,Wunderground v.1.15,2013-03-12 09:54:00,
2013-03-12 03:00:00,48.4,46.8,30.16,SSE,149,0.0,0.0,94,0.00,,,0.00,Wunderground v.1.15,2013-03-12 10:00:00,
2013-03-12 03:06:00,48.4,46.8,30.16,SSE,149,0.0,0.0,94,0.00,,,0.00,Wunderground v.1.15,2013-03-12 10:06:00,
2013-03-12 03:12:00,48.2,46.6,30.15,SSE,149,0.0,0.0,94,0.00,,,0.00,Wunderground v.1.15,2013-03-12 10:12:00,
2013-03-12 03:18:00,48.2,46.6,30.15,SSE,149,0.0,0.0,94,0.00,,,0.00,Wunderground v.1.15,2013-03-12 10:18:00,
2013-03-12 03:24:00,48.1,46.5,30.15,SSE,149,0.0,0.0,94,0.00,,,0.00,Wunderground v.1.15,2013-03-12 10:24:00,
2013-03-12 03:30:00,48.1,46.5,30.15,SSE,149,0.0,0.0,94,0.00,,,0.00,Wunderground v.1.15,2013-03-12 10:30:00,
2013-03-12 03:36:00,48.2,46.6,30.15,SSE,149,0.0,0.0,94,0.00,,,0.00,Wunderground v.1.15,2013-03-12 10:36:00,
2013-03-12 03:42:00,48.1,46.5,30.14,SSE,149,0.0,0.0,94,0.00,,,0.00,Wunderground v.1.15,2013-03-12 10:42:00,
2013-03-12 03:48:00,48.2,46.6,30.14,SSE,149,0.0,0.0,94,0.00,,,0.00,Wunderground v.1.15,2013-03-12 10:48:00,
2013-03-12 03:54:00,48.2,46.6,30.15,SSE,149,0.0,0.0,94,0.00,,,0.00,Wunderground v.1.15,2013-03-12 10:54:00,
2013-03-12 04:00:00,48.2,46.6,30.15,SSE,149,0.0,0.0,94,0.00,,,0.00,Wunderground v.1.15,2013-03-12 11:00:00,
2013-03-12 04:06:00,48.2,46.6,30.14,SSE,149,0.0,0.0,94,0.00,,,0.00,Wunderground v.1.15,2013-03-12 11:06:00,
2013-03-12 04:12:00,48.0,46.4,30.14,SSE,149,0.0,0.0,94,0.00,,,0.00,Wunderground v.1.15,2013-03-12 11:12:00,
2013-03-12 04:18:00,48.0,46.4,30.13,SSE,149,0.0,0.0,94,0.00,,,0.00,Wunderground v.1.15,2013-03-12 11:18:00,
2013-03-12 04:24:00,48.0,46.4,30.13,SSE,149,0.0,0.0,94,0.00,,,0.00,Wunderground v.1.15,2013-03-12 11:24:00,
2013-03-12 04:30:00,47.9,46.3,30.13,SSE,149,0.0,0.0,94,0.00,,,0.00,Wunderground v.1.15,2013-03-12 11:30:00,
2013-03-12 04:36:00,47.9,46.3,30.13,SSE,149,0.0,0.0,94,0.00,,,0.00,Wunderground v.1.15,2013-03-12 11:36:00,
2013-03-12 04:42:00,47.9,46.3,30.13,SSE,149,0.0,0.0,94,0.00,,,0.00,Wunderground v.1.15,2013-03-12 11:42:00,
2013-03-12 04:48:00,47.7,46.1,30.13,SSE,149,0.0,0.0,94,0.00,,,0.00,Wunderground v.1.15,2013-03-12 11:48:00,
2013-03-12 04:54:00,47.5,45.9,30.13,SSE,149,0.0,1.0,94,0.00,,,0.00,Wunderground v.1.15,2013-03-12 11:54:00,
2013-03-12 05:00:00,47.6,46.0,30.13,SSE,149,0.0,0.0,94,0.00,,,0.00,Wunderground v.1.15,2013-03-12 12:00:00,
2013-03-12 05:06:00,47.6,46.0,30.13,SSE,149,0.0,0.0,94,0.00,,,0.00,Wunderground v.1.15,2013-03-12 12:06:00,
2013-03-12 05:12:00,47.7,46.1,30.13,SSE,149,0.0,1.0,94,0.00,,,0.00,Wunderground v.1.15,2013-03-12 12:12:00,
2013-03-12 05:18:00,47.7,46.1,30.13,SSE,149,0.0,1.0,94,0.00,,,0.00,Wunderground v.1.15,2013-03-12 12:18:00,
2013-03-12 05:24:00,47.7,46.1,30.13,SSE,149,1.0,2.0,94,0.00,,,0.00,Wunderground v.1.15,2013-03-12 12:24:00,
2013-03-12 05:30:00,47.9,46.3,30.13,SSE,149,1.0,1.0,94,0.00,,,0.00,Wunderground v.1.15,2013-03-12 12:30:00,
2013-03-12 05:36:00,48.3,46.7,30.13,SSE,149,1.0,1.0,94,0.00,,,0.00,Wunderground v.1.15,2013-03-12 12:36:00,
2013-03-12 05:42:00,48.4,46.8,30.13,SSE,149,0.0,0.0,94,0.00,,,0.00,Wunderground v.1.15,2013-03-12 12:42:00,
2013-03-12 05:48:00,48.3,46.7,30.13,SSE,149,0.0,0.0,94,0.00,,,0.00,Wunderground v.1.15,2013-03-12 12:48:00,
2013-03-12 05:54:00,48.1,46.5,30.12,SSE,149,0.0,1.0,94,0.00,,,0.00,Wunderground v.1.15,2013-03-12 12:54:00,
2013-03-12 06:00:00,48.0,46.4,30.12,SSE,149,0.0,0.0,94,0.00,,,0.00,Wunderground v.1.15,2013-03-12 13:00:00,
2013-03-12 06:06:00,48.2,46.6,30.13,SSE,149,0.0,0.0,94,0.00,,,0.00,Wunderground v.1.15,2013-03-12 13:06:00,
2013-03-12 06:12:00,48.1,46.5,30.13,SSE,149,0.0,1.0,94,0.00,,,0.00,Wunderground v.1.15,2013-03-12 13:12:00,
2013-03-12 06:18:00,48.3,46.7,30.13,SSE,149,0.0,1.0,94,0.00,,,0.00,Wunderground v.1.15,2013-03-12 13:18:00,
2013-03-12 06:24:00,48.4,46.8,30.13,SSE,149,0.0,0.0,94,0.00,,,0.00,Wunderground v.1.15,2013-03-12 13:24:00,
2013-03-12 06:30:00,48.6,47.0,30.13,SSE,149,0.0,0.0,94,0.00,,,0.00,Wunderground v.1.15,2013-03-12 13:30:00,
2013-03-12 06:36:00,48.6,47.2,30.13,SSE,149,0.0,0.0,95,0.00,,,0.00,Wunderground v.1.15,2013-03-12 13:36:00,
2013-03-12 06:42:00,48.7,47.3,30.13,SSE,149,0.0,0.0,95,0.00,,,0.00,Wunderground v.1.15,2013-03-12 13:42:00,
2013-03-12 06:48:00,48.6,47.0,30.13,SSE,149,1.0,3.0,94,0.00,,,0.00,Wunderground v.1.15,2013-03-12 13:48:00,
2013-03-12 06:54:00,48.4,46.8,30.12,SSE,149,1.0,1.0,94,0.00,,,0.00,Wunderground v.1.15,2013-03-12 13:54:00,
2013-03-12 07:00:00,48.4,46.8,30.12,SSE,149,1.0,1.0,94,0.00,,,0.00,Wunderground v.1.15,2013-03-12 14:00:00,
2013-03-12 07:06:00,48.4,46.8,30.12,SSE,149,1.0,1.0,94,0.00,,,0.00,Wunderground v.1.15,2013-03-12 14:06:00,
2013-03-12 07:12:00,48.5,46.9,30.12,SSE,149,0.0,1.0,94,0.00,,,0.00,Wunderground v.1.15,2013-03-12 14:12:00,
2013-03-12 07:18:00,48.4,46.8,30.12,SSE,149,0.0,1.0,94,0.00,,,0.00,Wunderground v.1.15,2013-03-12 14:18:00,
2013-03-12 07:24:00,48.4,47.0,30.12,SSE,149,0.0,0.0,95,0.00,,,0.00,Wunderground v.1.15,2013-03-12 14:24:00,
2013-03-12 07:30:00,48.4,47.0,30.12,SSE,149,1.0,1.0,95,0.00,,,0.00,Wunderground v.1.15,2013-03-12 14:30:00,
2013-03-12 07:36:00,48.3,46.9,30.12,SSE,149,1.0,3.0,95,0.00,,,0.00,Wunderground v.1.15,2013-03-12 14:36:00,
2013-03-12 07:42:00,48.3,46.9,30.12,SSE,149,1.0,1.0,95,0.00,,,0.00,Wunderground v.1.15,2013-03-12 14:42:00,
2013-03-12 07:48:00,48.3,46.9,30.12,SSE,149,1.0,2.0,95,0.00,,,0.00,Wunderground v.1.15,2013-03-12 14:48:00,
2013-03-12 07:54:00,48.2,46.8,30.12,SSE,149,1.0,1.0,95,0.00,,,0.00,Wunderground v.1.15,2013-03-12 14:54:00,
2013-03-12 08:00:00,48.2,46.8,30.12,SSE,149,0.0,1.0,95,0.00,,,0.00,Wunderground v.1.15,2013-03-12 15:00:00,
2013-03-12 08:06:00,48.3,46.9,30.13,SSE,149,0.0,1.0,95,0.00,,,0.00,Wunderground v.1.15,2013-03-12 15:06:00,
2013-03-12 08:12:00,48.3,46.9,30.13,SSE,149,0.0,0.0,95,0.00,,,0.00,Wunderground v.1.15,2013-03-12 15:12:00,
2013-03-12 08:18:00,48.3,46.9,30.12,SSE,149,0.0,0.0,95,0.00,,,0.00,Wunderground v.1.15,2013-03-12 15:18:00,
2013-03-12 08:24:00,48.4,47.0,30.13,SSE,149,0.0,1.0,95,0.00,,,0.00,Wunderground v.1.15,2013-03-12 15:24:00,
2013-03-12 08:30:00,48.5,47.1,30.13,SSE,149,0.0,0.0,95,0.00,,,0.00,Wunderground v.1.15,2013-03-12 15:30:00,
2013-03-12 08:36:00,48.5,47.1,30.13,SSE,149,0.0,0.0,95,0.00,,,0.00,Wunderground v.1.15,2013-03-12 15:36:00,
2013-03-12 08:42:00,48.3,46.9,30.13,SSE,149,1.0,2.0,95,0.00,,,0.00,Wunderground v.1.15,2013-03-12 15:42:00,
2013-03-12 08:48:00,48.4,47.0,30.13,SSE,149,1.0,2.0,95,0.00,,,0.00,Wunderground v.1.15,2013-03-12 15:48:00,
2013-03-12 08:54:00,48.6,47.2,30.14,SSE,149,0.0,1.0,95,0.00,,,0.00,Wunderground v.1.15,2013-03-12 15:54:00,
2013-03-12 09:00:00,48.5,47.1,30.13,SSE,149,0.0,2.0,95,0.00,,,0.00,Wunderground v.1.15,2013-03-12 16:00:00,
2013-03-12 09:06:00,48.5,47.1,30.13,SSE,149,1.0,2.0,95,0.00,,,0.00,Wunderground v.1.15,2013-03-12 16:06:00,
2013-03-12 09:12:00,48.5,47.1,30.14,SSE,149,0.0,1.0,95,0.00,,,0.00,Wunderground v.1.15,2013-03-12 16:12:00,
2013-03-12 09:18:00,48.5,47.1,30.14,SSE,149,1.0,2.0,95,0.00,,,0.00,Wunderground v.1.15,2013-03-12 16:18:00,
2013-03-12 09:24:00,48.5,47.1,30.14,SSE,149,1.0,1.0,95,0.00,,,0.00,Wunderground v.1.15,2013-03-12 16:24:00,
2013-03-12 09:30:00,48.7,47.3,30.14,SSE,149,0.0,0.0,95,0.00,,,0.00,Wunderground v.1.15,2013-03-12 16:30:00,
2013-03-12 09:36:00,48.7,47.3,30.14,SSE,149,1.0,2.0,95,0.00,,,0.00,Wunderground v.1.15,2013-03-12 16:36:00,
2013-03-12 09:42:00,48.7,47.3,30.14,SSE,149,2.0,2.0,95,0.00,,,0.00,Wunderground v.1.15,2013-03-12 16:42:00,
2013-03-12 09:48:00,48.8,47.4,30.14,SSE,149,2.0,3.0,95,0.00,,,0.00,Wunderground v.1.15,2013-03-12 16:48:00,
2013-03-12 09:54:00,49.1,47.7,30.13,SSE,149,2.0,2.0,95,0.00,,,0.00,Wunderground v.1.15,2013-03-12 16:54:00,
2013-03-12 10:00:00,49.6,48.2,30.14,SSE,149,2.0,2.0,95,0.00,,,0.00,Wunderground v.1.15,2013-03-12 17:00:00,
2013-03-12 10:06:00,49.5,48.1,30.14,SSE,149,2.0,4.0,95,0.00,,,0.00,Wunderground v.1.15,2013-03-12 17:06:00,
2013-03-12 10:12:00,49.7,48.3,30.14,SE,138,2.0,2.0,95,0.00,,,0.00,Wunderground v.1.15,2013-03-12 17:12:00,
2013-03-12 10:18:00,49.9,48.5,30.14,SE,138,2.0,3.0,95,0.00,,,0.00,Wunderground v.1.15,2013-03-12 17:18:00,
2013-03-12 10:24:00,50.4,49.0,30.14,SE,138,1.0,2.0,95,0.00,,,0.00,Wunderground v.1.15,2013-03-12 17:24:00,
2013-03-12 10:30:00,51.1,49.7,30.14,SE,138,2.0,4.0,95,0.00,,,0.00,Wunderground v.1.15,2013-03-12 17:30:00,
2013-03-12 10:36:00,51.3,49.9,30.14,SE,142,2.0,4.0,95,0.00,,,0.00,Wunderground v.1.15,2013-03-12 17:36:00,
2013-03-12 10:42:00,51.7,50.0,30.14,SSE,168,2.0,2.0,94,0.00,,,0.00,Wunderground v.1.15,2013-03-12 17:42:00,
2013-03-12 10:48:00,52.0,50.3,30.14,SSW,207,2.0,2.0,94,0.00,,,0.00,Wunderground v.1.15,2013-03-12 17:48:00,
2013-03-12 10:54:00,52.0,50.0,30.15,SSE,156,2.0,4.0,93,0.00,,,0.00,Wunderground v.1.15,2013-03-12 17:54:00,
2013-03-12 11:00:00,52.2,49.9,30.15,South,184,3.0,3.0,92,0.00,,,0.00,Wunderground v.1.15,2013-03-12 18:00:00,
2013-03-12 11:06:00,52.6,50.0,30.15,SSE,157,3.0,3.0,91,0.00,,,0.00,Wunderground v.1.15,2013-03-12 18:06:00,
2013-03-12 11:12:00,52.7,49.5,30.15,SE,145,3.0,6.0,89,0.00,,,0.00,Wunderground v.1.15,2013-03-12 18:12:00,
2013-03-12 11:18:00,53.0,49.8,30.15,SE,126,3.0,6.0,89,0.00,,,0.00,Wunderground v.1.15,2013-03-12 18:18:00,
2013-03-12 11:24:00,53.3,49.8,30.15,ESE,121,3.0,6.0,88,0.00,,,0.00,Wunderground v.1.15,2013-03-12 18:24:00,
2013-03-12 11:30:00,54.0,50.2,30.15,SSE,159,3.0,3.0,87,0.00,,,0.00,Wunderground v.1.15,2013-03-12 18:30:00,
2013-03-12 11:36:00,54.4,49.7,30.15,SSE,153,2.0,3.0,84,0.00,,,0.00,Wunderground v.1.15,2013-03-12 18:36:00,
2013-03-12 11:42:00,54.8,49.7,30.15,ESE,123,2.0,2.0,83,0.00,,,0.00,Wunderground v.1.15,2013-03-12 18:42:00,
2013-03-12 11:48:00,54.5,49.4,30.15,SE,134,3.0,6.0,83,0.00,,,0.00,Wunderground v.1.15,2013-03-12 18:48:00,
2013-03-12 11:54:00,54.2,49.1,30.15,SSE,149,4.0,5.0,83,0.00,,,0.00,Wunderground v.1.15,2013-03-12 18:54:00,
2013-03-12 12:00:00,54.6,49.2,30.15,South,188,4.0,4.0,82,0.00,,,0.00,Wunderground v.1.15,2013-03-12 19:00:00,
2013-03-12 12:06:00,54.6,48.6,30.15,SE,141,4.0,9.0,80,0.00,,,0.00,Wunderground v.1.15,2013-03-12 19:06:00,
2013-03-12 12:12:00,54.7,49.0,30.15,SSE,155,4.0,5.0,81,0.00,,,0.00,Wunderground v.1.15,2013-03-12 19:12:00,
2013-03-12 12:18:00,54.7,49.0,30.15,SE,146,4.0,6.0,81,0.00,,,0.00,Wunderground v.1.15,2013-03-12 19:18:00,
2013-03-12 12:24:00,55.2,49.1,30.14,SSW,195,3.0,4.0,80,0.00,,,0.00,Wunderground v.1.15,2013-03-12 19:24:00,
2013-03-12 12:30:00,55.4,49.3,30.14,SE,143,3.0,3.0,80,0.00,,,0.00,Wunderground v.1.15,2013-03-12 19:30:00,
2013-03-12 12:36:00,55.7,49.3,30.14,South,178,4.0,4.0,79,0.00,,,0.00,Wunderground v.1.15,2013-03-12 19:36:00,
2013-03-12 12:42:00,56.0,49.2,30.14,South,175,3.0,3.0,78,0.00,,,0.00,Wunderground v.1.15,2013-03-12 19:42:00,
2013-03-12 12:48:00,56.4,48.9,30.14,SE,128,3.0,5.0,76,0.00,,,0.00,Wunderground v.1.15,2013-03-12 19:48:00,
2013-03-12 12:54:00,56.6,48.8,30.14,South,190,6.0,9.0,75,0.00,,,0.00,Wunderground v.1.15,2013-03-12 19:54:00,
2013-03-12 13:00:00,57.1,49.2,30.14,SE,142,5.0,5.0,75,0.00,,,0.00,Wunderground v.1.15,2013-03-12 20:00:00,
2013-03-12 13:06:00,57.2,48.3,30.14,SSE,158,4.0,7.0,72,0.00,,,0.00,Wunderground v.1.15,2013-03-12 20:06:00,
2013-03-12 13:12:00,57.6,49.0,30.14,SSE,157,4.0,4.0,73,0.00,,,0.00,Wunderground v.1.15,2013-03-12 20:12:00,
2013-03-12 13:18:00,57.4,48.8,30.14,SSE,153,5.0,9.0,73,0.00,,,0.00,Wunderground v.1.15,2013-03-12 20:18:00,
2013-03-12 13:24:00,57.5,48.9,30.14,South,188,5.0,5.0,73,0.00,,,0.00,Wunderground v.1.15,2013-03-12 20:24:00,
2013-03-12 13:30:00,58.0,49.0,30.14,South,187,4.0,4.0,72,0.00,,,0.00,Wunderground v.1.15,2013-03-12 20:30:00,
2013-03-12 13:36:00,58.7,48.9,30.14,SSE,148,3.0,6.0,70,0.00,,,0.00,Wunderground v.1.15,2013-03-12 20:36:00,
2013-03-12 13:42:00,59.0,48.8,30.13,SE,144,4.0,9.0,69,0.00,,,0.00,Wunderground v.1.15,2013-03-12 20:42:00,
2013-03-12 13:48:00,59.0,48.8,30.13,SE,129,4.0,9.0,69,0.00,,,0.00,Wunderground v.1.15,2013-03-12 20:48:00,
2013-03-12 13:54:00,59.0,48.4,30.13,SSW,196,3.0,5.0,68,0.00,,,0.00,Wunderground v.1.15,2013-03-12 20:54:00,
2013-03-12 14:00:00,59.3,47.9,30.13,SSE,167,3.0,9.0,66,0.00,,,0.00,Wunderground v.1.15,2013-03-12 21:00:00,
2013-03-12 14:06:00,59.0,47.7,30.13,SSE,157,3.0,9.0,66,0.00,,,0.00,Wunderground v.1.15,2013-03-12 21:06:00,
2013-03-12 14:12:00,59.0,48.1,30.13,South,177,4.0,4.0,67,0.00,,,0.00,Wunderground v.1.15,2013-03-12 21:12:00,
2013-03-12 14:18:00,59.0,47.7,30.12,SSW,209,4.0,6.0,66,0.00,,,0.00,Wunderground v.1.15,2013-03-12 21:18:00,
2013-03-12 14:24:00,59.0,47.7,30.12,South,190,5.0,7.0,66,0.00,,,0.00,Wunderground v.1.15,2013-03-12 21:24:00,
2013-03-12 14:30:00,59.0,47.7,30.12,South,171,5.0,5.0,66,0.00,,,0.00,Wunderground v.1.15,2013-03-12 21:30:00,
2013-03-12 14:36:00,59.2,47.8,30.11,SSW,197,4.0,9.0,66,0.00,,,0.00,Wunderground v.1.15,2013-03-12 21:36:00,
2013-03-12 14:42:00,59.6,47.8,30.11,SE,146,4.0,9.0,65,0.00,,,0.00,Wunderground v.1.15,2013-03-12 21:42:00,
2013-03-12 14:48:00,59.5,47.7,30.11,SE,139,5.0,9.0,65,0.00,,,0.00,Wunderground v.1.15,2013-03-12 21:48:00,
2013-03-12 14:54:00,59.0,47.2,30.11,SSW,194,6.0,13.0,65,0.00,,,0.00,Wunderground v.1.15,2013-03-12 21:54:00,
2013-03-12 15:00:00,59.0,47.2,30.12,South,179,7.0,7.0,65,0.00,,,0.00,Wunderground v.1.15,2013-03-12 22:00:00,
2013-03-12 15:06:00,59.2,47.8,30.11,SSW,206,4.0,7.0,66,0.00,,,0.00,Wunderground v.1.15,2013-03-12 22:06:00,
2013-03-12 15:12:00,59.7,48.3,30.11,South,182,4.0,6.0,66,0.00,,,0.00,Wunderground v.1.15,2013-03-12 22:12:00,
2013-03-12 15:18:00,59.8,48.4,30.11,SE,146,4.0,6.0,66,0.00,,,0.00,Wunderground v.1.15,2013-03-12 22:18:00,
2013-03-12 15:24:00,59.8,48.4,30.11,SSW,205,3.0,4.0,66,0.00,,,0.00,Wunderground v.1.15,2013-03-12 22:24:00,
2013-03-12 15:30:00,59.7,48.3,30.11,South,188,3.0,3.0,66,0.00,,,0.00,Wunderground v.1.15,2013-03-12 22:30:00,
2013-03-12 15:36:00,59.8,47.6,30.11,SSE,150,3.0,7.0,64,0.00,,,0.00,Wunderground v.1.15,2013-03-12 22:36:00,
2013-03-12 15:42:00,59.8,48.4,30.11,SE,134,4.0,5.0,66,0.00,,,0.00,Wunderground v.1.15,2013-03-12 22:42:00,
2013-03-12 15:48:00,60.1,47.9,30.11,SE,142,4.0,6.0,64,0.00,,,0.00,Wunderground v.1.15,2013-03-12 22:48:00,
2013-03-12 15:54:00,60.0,47.8,30.10,South,186,4.0,9.0,64,0.00,,,0.00,Wunderground v.1.15,2013-03-12 22:54:00,
2013-03-12 16:00:00,60.1,47.9,30.10,SSE,155,4.0,4.0,64,0.00,,,0.00,Wunderground v.1.15,2013-03-12 23:00:00,
2013-03-12 16:06:00,60.0,47.4,30.10,SSW,211,5.0,10.0,63,0.00,,,0.00,Wunderground v.1.15,2013-03-12 23:06:00,
2013-03-12 16:12:00,60.0,46.9,30.11,SSW,209,5.0,5.0,62,0.00,,,0.00,Wunderground v.1.15,2013-03-12 23:12:00,
2013-03-12 16:18:00,59.9,47.3,30.10,SSE,157,5.0,7.0,63,0.00,,,0.00,Wunderground v.1.15,2013-03-12 23:18:00,
2013-03-12 16:24:00,59.9,47.7,30.10,South,173,4.0,5.0,64,0.00,,,0.00,Wunderground v.1.15,2013-03-12 23:24:00,
2013-03-12 16:30:00,60.1,47.9,30.10,South,169,3.0,3.0,64,0.00,,,0.00,Wunderground v.1.15,2013-03-12 23:30:00,
2013-03-12 16:36:00,60.3,47.6,30.10,SSW,202,2.0,3.0,63,0.00,,,0.00,Wunderground v.1.15,2013-03-12 23:36:00,
2013-03-12 16:42:00,60.2,47.1,30.10,SSW,200,3.0,6.0,62,0.00,,,0.00,Wunderground v.1.15,2013-03-12 23:42:00,
2013-03-12 16:48:00,60.2,47.1,30.10,SSE,156,4.0,6.0,62,0.00,,,0.00,Wunderground v.1.15,2013-03-12 23:48:00,
2013-03-12 16:54:00,60.3,47.2,30.10,SSW,192,3.0,4.0,62,0.00,,,0.00,Wunderground v.1.15,2013-03-12 23:54:00,
2013-03-12 17:00:00,60.0,47.4,30.10,SSW,213,4.0,4.0,63,0.00,,,0.00,Wunderground v.1.15,2013-03-13 00:00:00,
2013-03-12 17:08:00,60.0,47.4,30.09,SSE,165,3.0,5.0,63,0.00,,,0.00,Wunderground v.1.15,2013-03-13 00:08:00,
2013-03-12 17:14:00,60.0,47.8,30.10,SSW,194,3.0,3.0,64,0.00,,,0.00,Wunderground v.1.15,2013-03-13 00:14:00,
2013-03-12 17:20:00,59.9,47.7,30.10,South,175,3.0,3.0,64,0.00,,,0.00,Wunderground v.1.15,2013-03-13 00:20:00,
2013-03-12 17:26:00,60.0,47.8,30.10,South,184,4.0,5.0,64,0.00,,,0.00,Wunderground v.1.15,2013-03-13 00:26:00,
2013-03-12 17:32:00,60.2,48.0,30.10,South,185,3.0,3.0,64,0.00,,,0.00,Wunderground v.1.15,2013-03-13 00:32:00,
2013-03-12 17:38:00,60.2,47.6,30.10,SSW,197,3.0,4.0,63,0.00,,,0.00,Wunderground v.1.15,2013-03-13 00:38:00,
2013-03-12 17:44:00,59.9,47.7,30.10,SSE,165,3.0,4.0,64,0.00,,,0.00,Wunderground v.1.15,2013-03-13 00:44:00,
2013-03-12 17:50:00,59.9,47.7,30.09,SSE,156,2.0,2.0,64,0.00,,,0.00,Wunderground v.1.15,2013-03-13 00:50:00,
2013-03-12 17:56:00,59.6,47.4,30.10,South,177,2.0,3.0,64,0.00,,,0.00,Wunderground v.1.15,2013-03-13 00:56:00,
2013-03-12 18:02:00,59.5,47.7,30.10,South,178,1.0,2.0,65,0.00,,,0.00,Wunderground v.1.15,2013-03-13 01:02:00,
2013-03-12 18:08:00,59.2,47.4,30.10,South,178,1.0,2.0,65,0.00,,,0.00,Wunderground v.1.15,2013-03-13 01:08:00,
2013-03-12 18:14:00,59.0,47.7,30.10,South,178,1.0,2.0,66,0.00,,,0.00,Wunderground v.1.15,2013-03-13 01:14:00,
2013-03-12 18:20:00,59.0,47.2,30.10,South,179,1.0,1.0,65,0.00,,,0.00,Wunderground v.1.15,2013-03-13 01:20:00,
2013-03-12 18:26:00,58.8,47.5,30.10,West,277,2.0,3.0,66,0.00,,,0.00,Wunderground v.1.15,2013-03-13 01:26:00,
2013-03-12 18:32:00,58.4,47.1,30.10,WSW,257,2.0,3.0,66,0.00,,,0.00,Wunderground v.1.15,2013-03-13 01:32:00,
2013-03-12 18:38:00,58.0,47.1,30.10,WSW,247,2.0,5.0,67,0.00,,,0.00,Wunderground v.1.15,2013-03-13 01:38:00,
2013-03-12 18:44:00,57.8,46.9,30.10,WSW,254,2.0,2.0,67,0.00,,,0.00,Wunderground v.1.15,2013-03-13 01:44:00,
2013-03-12 18:50:00,57.6,46.7,30.10,WSW,254,1.0,1.0,67,0.00,,,0.00,Wunderground v.1.15,2013-03-13 01:50:00,
2013-03-12 18:56:00,57.3,46.8,30.10,WSW,254,1.0,1.0,68,0.00,,,0.00,Wunderground v.1.15,2013-03-13 01:56:00,
2013-03-12 19:02:00,57.1,46.6,30.11,WSW,256,1.0,2.0,68,0.00,,,0.00,Wunderground v.1.15,2013-03-13 02:02:00,
2013-03-12 19:08:00,56.8,46.3,30.11,West,269,2.0,2.0,68,0.00,,,0.00,Wunderground v.1.15,2013-03-13 02:08:00,
2013-03-12 19:14:00,56.7,46.3,30.11,SW,233,2.0,2.0,68,0.00,,,0.00,Wunderground v.1.15,2013-03-13 02:14:00,
2013-03-12 19:20:00,56.5,46.4,30.11,SW,236,2.0,2.0,69,0.00,,,0.00,Wunderground v.1.15,2013-03-13 02:20:00,
2013-03-12 19:26:00,56.4,46.4,30.11,SW,236,1.0,2.0,69,0.00,,,0.00,Wunderground v.1.15,2013-03-13 02:26:00,
2013-03-12 19:32:00,56.2,46.2,30.11,SW,236,1.0,1.0,69,0.00,,,0.00,Wunderground v.1.15,2013-03-13 02:32:00,
2013-03-12 19:38:00,56.3,46.3,30.11,SW,236,1.0,1.0,69,0.00,,,0.00,Wunderground v.1.15,2013-03-13 02:38:00,
2013-03-12 19:44:00,56.1,46.1,30.12,SW,236,0.0,1.0,69,0.00,,,0.00,Wunderground v.1.15,2013-03-13 02:44:00,
2013-03-12 19:50:00,56.0,46.0,30.12,SW,236,0.0,1.0,69,0.00,,,0.00,Wunderground v.1.15,2013-03-13 02:50:00,
2013-03-12 19:56:00,55.9,45.9,30.12,SW,236,1.0,2.0,69,0.00,,,0.00,Wunderground v.1.15,2013-03-13 02:56:00,
2013-03-12 20:02:00,55.9,45.9,30.12,SW,236,1.0,1.0,69,0.00,,,0.00,Wunderground v.1.15,2013-03-13 03:02:00,
2013-03-12 20:08:00,55.7,45.7,30.12,West,269,1.0,5.0,69,0.00,,,0.00,Wunderground v.1.15,2013-03-13 03:08:00,
2013-03-12 20:14:00,55.5,45.5,30.12,West,273,1.0,2.0,69,0.00,,,0.00,Wunderground v.1.15,2013-03-13 03:14:00,
2013-03-12 20:20:00,55.4,45.8,30.12,WSW,250,1.0,1.0,70,0.00,,,0.00,Wunderground v.1.15,2013-03-13 03:20:00,
2013-03-12 20:26:00,55.2,45.6,30.12,SW,225,1.0,3.0,70,0.00,,,0.00,Wunderground v.1.15,2013-03-13 03:26:00,
2013-03-12 20:32:00,55.1,45.5,30.12,WSW,257,2.0,2.0,70,0.00,,,0.00,Wunderground v.1.15,2013-03-13 03:32:00,
2013-03-12 20:38:00,54.9,45.7,30.12,WSW,245,1.0,2.0,71,0.00,,,0.00,Wunderground v.1.15,2013-03-13 03:38:00,
2013-03-12 20:44:00,54.9,45.3,30.12,WSW,245,1.0,2.0,70,0.00,,,0.00,Wunderground v.1.15,2013-03-13 03:44:00,
2013-03-12 20:50:00,54.8,45.6,30.12,WSW,245,0.0,0.0,71,0.00,,,0.00,Wunderground v.1.15,2013-03-13 03:50:00,
2013-03-12 20:56:00,54.8,45.6,30.12,WSW,245,0.0,0.0,71,0.00,,,0.00,Wunderground v.1.15,2013-03-13 03:56:00,
2013-03-12 21:00:00,54.6,45.4,30.12,WSW,245,0.0,0.0,71,0.00,,,0.00,Wunderground v.1.15,2013-03-13 04:00:00,
2013-03-12 21:02:00,54.6,45.4,30.12,WSW,245,0.0,0.0,71,0.00,,,0.00,Wunderground v.1.15,2013-03-13 04:02:00,
2013-03-12 21:08:00,54.3,45.8,30.13,WSW,245,0.0,0.0,73,0.00,,,0.00,Wunderground v.1.15,2013-03-13 04:08:00,
2013-03-12 21:10:00,54.2,45.7,30.13,WSW,245,0.0,1.0,73,0.00,,,0.00,Wunderground v.1.15,2013-03-13 04:10:00,
2013-03-12 21:16:00,54.1,45.6,30.13,WSW,245,0.0,2.0,73,0.00,,,0.00,Wunderground v.1.15,2013-03-13 04:16:00,
2013-03-12 21:22:00,53.9,45.8,30.14,WSW,245,0.0,0.0,74,0.00,,,0.00,Wunderground v.1.15,2013-03-13 04:22:00,
2013-03-12 21:28:00,53.8,45.7,30.14,WSW,245,0.0,1.0,74,0.00,,,0.00,Wunderground v.1.15,2013-03-13 04:28:00,
2013-03-12 21:34:00,53.7,45.6,30.14,WSW,245,0.0,0.0,74,0.00,,,0.00,Wunderground v.1.15,2013-03-13 04:34:00,
2013-03-12 21:40:00,53.6,45.9,30.13,WSW,245,0.0,0.0,75,0.00,,,0.00,Wunderground v.1.15,2013-03-13 04:40:00,
2013-03-12 21:46:00,53.5,45.8,30.14,WSW,245,0.0,0.0,75,0.00,,,0.00,Wunderground v.1.15,2013-03-13 04:46:00,
2013-03-12 21:52:00,53.3,45.6,30.13,WSW,245,0.0,0.0,75,0.00,,,0.00,Wunderground v.1.15,2013-03-13 04:52:00,
2013-03-12 21:58:00,53.3,45.9,30.13,WSW,245,0.0,0.0,76,0.00,,,0.00,Wunderground v.1.15,2013-03-13 04:58:00,
2013-03-12 22:04:00,53.3,45.9,30.13,WSW,245,0.0,0.0,76,0.00,,,0.00,Wunderground v.1.15,2013-03-13 05:04:00,
2013-03-12 22:10:00,53.2,45.8,30.14,WSW,245,0.0,0.0,76,0.00,,,0.00,Wunderground v.1.15,2013-03-13 05:10:00,
2013-03-12 22:16:00,53.2,46.2,30.14,WSW,245,0.0,1.0,77,0.00,,,0.00,Wunderground v.1.15,2013-03-13 05:16:00,
2013-03-12 22:22:00,52.9,45.9,30.14,WSW,245,0.0,0.0,77,0.00,,,0.00,Wunderground v.1.15,2013-03-13 05:22:00,
2013-03-12 22:28:00,52.8,45.8,30.14,WSW,245,0.0,0.0,77,0.00,,,0.00,Wunderground v.1.15,2013-03-13 05:28:00,
2013-03-12 22:34:00,52.7,46.0,30.14,WSW,245,0.0,0.0,78,0.00,,,0.00,Wunderground v.1.15,2013-03-13 05:34:00,
2013-03-12 22:40:00,52.6,46.3,30.14,WSW,245,0.0,0.0,79,0.00,,,0.00,Wunderground v.1.15,2013-03-13 05:40:00,
2013-03-12 22:48:00,52.6,46.3,30.14,WSW,245,0.0,0.0,79,0.00,,,0.00,Wunderground v.1.15,2013-03-13 05:48:00,
2013-03-12 22:54:00,52.4,46.1,30.13,WSW,245,0.0,0.0,79,0.00,,,0.00,Wunderground v.1.15,2013-03-13 05:54:00,
2013-03-12 23:00:00,52.2,45.9,30.14,WSW,245,0.0,0.0,79,0.00,,,0.00,Wunderground v.1.15,2013-03-13 06:00:00,
2013-03-12 23:06:00,52.0,46.0,30.14,WSW,245,0.0,1.0,80,0.00,,,0.00,Wunderground v.1.15,2013-03-13 06:06:00,
2013-03-12 23:12:00,51.7,45.7,30.14,WSW,245,1.0,2.0,80,0.00,,,0.00,Wunderground v.1.15,2013-03-13 06:12:00,
2013-03-12 23:18:00,51.5,45.5,30.14,WSW,245,1.0,2.0,80,0.00,,,0.00,Wunderground v.1.15,2013-03-13 06:18:00,
2013-03-12 23:24:00,51.2,45.2,30.14,WSW,245,1.0,1.0,80,0.00,,,0.00,Wunderground v.1.15,2013-03-13 06:24:00,
2013-03-12 23:30:00,51.0,45.0,30.13,WSW,245,0.0,0.0,80,0.00,,,0.00,Wunderground v.1.15,2013-03-13 06:30:00,
2013-03-12 23:36:00,50.7,45.1,30.14,WSW,245,0.0,0.0,81,0.00,,,0.00,Wunderground v.1.15,2013-03-13 06:36:00,
2013-03-12 23:42:00,50.5,44.9,30.14,WSW,245,0.0,0.0,81,0.00,,,0.00,Wunderground v.1.15,2013-03-13 06:42:00,
2013-03-12 23:48:00,50.1,45.1,30.14,WSW,245,0.0,0.0,83,0.00,,,0.00,Wunderground v.1.15,2013-03-13 06:48:00,
2013-03-12 23:54:00,50.0,45.0,30.14,WSW,245,0.0,0.0,83,0.00,,,0.00,Wunderground v.1.15,2013-03-13 06:54:00,